sensor_id;sensor_type;location;lat;lon;timestamp;pressure;altitude;pressure_sealevel;temperature;humidity
19672;BME280;9983;51.114;13.788;2022-08-23T00:04:30;99423.94;;;17.81;100.00
19672;BME280;9983;51.114;13.788;2022-08-23T00:09:31;99418.72;;;18.04;100.00
19672;BME280;9983;51.114;13.788;2022-08-23T00:14:34;99416.31;;;18.33;100.00
19672;BME280;9983;51.114;13.788;2022-08-23T00:19:36;99409.50;;;18.42;100.00
19672;BME280;9983;51.114;13.788;2022-08-23T00:24:37;99403.78;;;18.50;100.00
19672;BME280;9983;51.114;13.788;2022-08-23T00:29:43;99408.75;;;18.35;100.00
19672;BME280;9983;51.114;13.788;2022-08-23T00:34:45;99407.69;;;18.17;100.00
19672;BME280;9983;51.114;13.788;2022-08-23T00:39:46;99406.06;;;17.98;100.00
19672;BME280;9983;51.114;13.788;2022-08-23T00:44:46;99413.34;;;17.98;100.00
19672;BME280;9983;51.114;13.788;2022-08-23T00:50:08;99408.00;;;18.28;100.00
19672;BME280;9983;51.114;13.788;2022-08-23T00:55:11;99408.59;;;18.11;100.00
19672;BME280;9983;51.114;13.788;2022-08-23T01:00:12;99394.34;;;18.34;100.00
19672;BME280;9983;51.114;13.788;2022-08-23T01:05:13;99396.97;;;18.77;100.00
19672;BME280;9983;51.114;13.788;2022-08-23T01:10:20;99397.81;;;18.78;100.00
19672;BME280;9983;51.114;13.788;2022-08-23T01:15:25;99404.06;;;18.78;100.00
19672;BME280;9983;51.114;13.788;2022-08-23T01:20:33;99396.81;;;18.90;100.00
19672;BME280;9983;51.114;13.788;2022-08-23T01:25:36;99395.16;;;18.89;100.00
19672;BME280;9983;51.114;13.788;2022-08-23T01:30:37;99400.00;;;18.69;100.00
19672;BME280;9983;51.114;13.788;2022-08-23T01:35:42;99399.91;;;18.76;100.00
19672;BME280;9983;51.114;13.788;2022-08-23T01:40:43;99400.31;;;18.79;100.00
19672;BME280;9983;51.114;13.788;2022-08-23T01:45:45;99401.75;;;18.93;100.00
19672;BME280;9983;51.114;13.788;2022-08-23T01:50:46;99405.28;;;18.82;100.00
19672;BME280;9983;51.114;13.788;2022-08-23T01:55:46;99400.38;;;18.91;100.00
19672;BME280;9983;51.114;13.788;2022-08-23T02:00:47;99404.34;;;18.88;100.00
19672;BME280;9983;51.114;13.788;2022-08-23T02:05:48;99406.66;;;18.73;100.00
19672;BME280;9983;51.114;13.788;2022-08-23T02:10:48;99409.06;;;18.81;100.00
19672;BME280;9983;51.114;13.788;2022-08-23T02:15:50;99407.09;;;18.70;100.00
19672;BME280;9983;51.114;13.788;2022-08-23T02:20:51;99400.63;;;18.71;100.00
19672;BME280;9983;51.114;13.788;2022-08-23T02:25:53;99408.31;;;18.74;100.00
19672;BME280;9983;51.114;13.788;2022-08-23T02:30:53;99397.72;;;18.84;100.00
19672;BME280;9983;51.114;13.788;2022-08-23T02:35:53;99406.31;;;19.00;100.00
19672;BME280;9983;51.114;13.788;2022-08-23T02:40:54;99413.66;;;18.81;100.00
19672;BME280;9983;51.114;13.788;2022-08-23T02:45:54;99408.19;;;18.99;100.00
19672;BME280;9983;51.114;13.788;2022-08-23T02:50:58;99410.88;;;18.69;100.00
19672;BME280;9983;51.114;13.788;2022-08-23T02:55:59;99409.81;;;19.00;100.00
19672;BME280;9983;51.114;13.788;2022-08-23T03:01:00;99416.41;;;18.92;100.00
19672;BME280;9983;51.114;13.788;2022-08-23T03:06:00;99405.91;;;18.66;100.00
19672;BME280;9983;51.114;13.788;2022-08-23T03:11:00;99418.06;;;18.93;100.00
19672;BME280;9983;51.114;13.788;2022-08-23T03:16:01;99416.78;;;18.96;100.00
19672;BME280;9983;51.114;13.788;2022-08-23T03:21:02;99424.22;;;19.01;100.00
19672;BME280;9983;51.114;13.788;2022-08-23T03:26:05;99421.16;;;18.97;100.00
19672;BME280;9983;51.114;13.788;2022-08-23T03:31:06;99421.38;;;18.95;100.00
19672;BME280;9983;51.114;13.788;2022-08-23T03:36:08;99415.03;;;19.02;100.00
19672;BME280;9983;51.114;13.788;2022-08-23T03:41:10;99433.72;;;19.10;100.00
19672;BME280;9983;51.114;13.788;2022-08-23T03:46:11;99430.31;;;19.14;100.00
19672;BME280;9983;51.114;13.788;2022-08-23T03:51:22;99445.53;;;19.04;100.00
19672;BME280;9983;51.114;13.788;2022-08-23T03:56:26;99437.38;;;19.04;100.00
19672;BME280;9983;51.114;13.788;2022-08-23T04:01:26;99442.84;;;18.85;100.00
19672;BME280;9983;51.114;13.788;2022-08-23T04:06:27;99444.06;;;19.01;100.00
19672;BME280;9983;51.114;13.788;2022-08-23T04:11:27;99440.09;;;19.04;100.00
19672;BME280;9983;51.114;13.788;2022-08-23T04:16:28;99440.19;;;18.97;100.00
19672;BME280;9983;51.114;13.788;2022-08-23T04:21:29;99441.75;;;19.05;100.00
19672;BME280;9983;51.114;13.788;2022-08-23T04:26:30;99444.53;;;19.16;100.00
19672;BME280;9983;51.114;13.788;2022-08-23T04:31:33;99443.75;;;19.09;100.00
19672;BME280;9983;51.114;13.788;2022-08-23T04:36:36;99450.22;;;18.97;100.00
19672;BME280;9983;51.114;13.788;2022-08-23T04:41:37;99451.88;;;18.98;100.00
19672;BME280;9983;51.114;13.788;2022-08-23T04:46:56;99455.22;;;18.81;100.00
19672;BME280;9983;51.114;13.788;2022-08-23T04:51:56;99458.09;;;18.68;100.00
19672;BME280;9983;51.114;13.788;2022-08-23T04:56:56;99457.63;;;18.89;100.00
19672;BME280;9983;51.114;13.788;2022-08-23T05:01:56;99455.22;;;18.81;100.00
19672;BME280;9983;51.114;13.788;2022-08-23T05:06:57;99462.22;;;18.52;100.00
19672;BME280;9983;51.114;13.788;2022-08-23T05:11:57;99465.94;;;18.76;100.00
19672;BME280;9983;51.114;13.788;2022-08-23T05:16:57;99476.94;;;19.00;100.00
19672;BME280;9983;51.114;13.788;2022-08-23T05:21:57;99473.63;;;18.79;100.00
19672;BME280;9983;51.114;13.788;2022-08-23T05:26:58;99471.59;;;19.23;100.00
19672;BME280;9983;51.114;13.788;2022-08-23T05:31:58;99468.19;;;18.98;100.00
19672;BME280;9983;51.114;13.788;2022-08-23T05:36:58;99472.81;;;19.09;100.00
19672;BME280;9983;51.114;13.788;2022-08-23T05:41:59;99478.69;;;19.24;100.00
19672;BME280;9983;51.114;13.788;2022-08-23T05:46:59;99480.16;;;19.38;100.00
19672;BME280;9983;51.114;13.788;2022-08-23T05:51:59;99482.47;;;19.23;100.00
19672;BME280;9983;51.114;13.788;2022-08-23T05:56:59;99483.19;;;19.30;100.00
19672;BME280;9983;51.114;13.788;2022-08-23T06:02:00;99478.78;;;19.47;100.00
19672;BME280;9983;51.114;13.788;2022-08-23T06:07:01;99493.13;;;19.36;100.00
19672;BME280;9983;51.114;13.788;2022-08-23T06:12:01;99507.66;;;19.48;100.00
19672;BME280;9983;51.114;13.788;2022-08-23T06:17:02;99495.84;;;19.54;100.00
19672;BME280;9983;51.114;13.788;2022-08-23T06:22:02;99496.28;;;19.51;100.00
19672;BME280;9983;51.114;13.788;2022-08-23T06:27:03;99501.16;;;19.31;100.00
19672;BME280;9983;51.114;13.788;2022-08-23T06:32:04;99494.56;;;19.68;100.00
19672;BME280;9983;51.114;13.788;2022-08-23T06:37:11;99499.16;;;19.56;100.00
19672;BME280;9983;51.114;13.788;2022-08-23T06:42:14;99510.31;;;19.66;100.00
19672;BME280;9983;51.114;13.788;2022-08-23T06:47:15;99506.75;;;19.78;100.00
19672;BME280;9983;51.114;13.788;2022-08-23T06:52:15;99512.88;;;19.61;100.00
19672;BME280;9983;51.114;13.788;2022-08-23T06:57:16;99519.97;;;19.62;100.00
19672;BME280;9983;51.114;13.788;2022-08-23T07:02:16;99519.75;;;19.76;100.00
19672;BME280;9983;51.114;13.788;2022-08-23T07:07:16;99525.75;;;19.36;100.00
19672;BME280;9983;51.114;13.788;2022-08-23T07:12:18;99530.19;;;19.79;100.00
19672;BME280;9983;51.114;13.788;2022-08-23T07:17:19;99540.78;;;19.68;100.00
19672;BME280;9983;51.114;13.788;2022-08-23T07:22:19;99535.34;;;19.68;100.00
19672;BME280;9983;51.114;13.788;2022-08-23T07:27:20;99541.28;;;19.65;100.00
19672;BME280;9983;51.114;13.788;2022-08-23T07:32:20;99537.13;;;19.33;100.00
19672;BME280;9983;51.114;13.788;2022-08-23T07:37:20;99544.78;;;19.54;100.00
19672;BME280;9983;51.114;13.788;2022-08-23T07:42:21;99546.34;;;19.62;100.00
19672;BME280;9983;51.114;13.788;2022-08-23T07:47:21;99541.78;;;19.86;100.00
19672;BME280;9983;51.114;13.788;2022-08-23T07:52:21;99547.50;;;19.96;100.00
19672;BME280;9983;51.114;13.788;2022-08-23T07:57:22;99549.56;;;19.70;100.00
19672;BME280;9983;51.114;13.788;2022-08-23T08:02:22;99553.81;;;19.66;100.00
19672;BME280;9983;51.114;13.788;2022-08-23T08:07:23;99557.91;;;19.99;100.00
19672;BME280;9983;51.114;13.788;2022-08-23T08:12:23;99565.63;;;20.25;100.00
19672;BME280;9983;51.114;13.788;2022-08-23T08:17:23;99562.19;;;20.18;100.00
19672;BME280;9983;51.114;13.788;2022-08-23T08:22:23;99562.91;;;20.25;100.00
19672;BME280;9983;51.114;13.788;2022-08-23T08:27:24;99573.09;;;20.30;100.00
19672;BME280;9983;51.114;13.788;2022-08-23T08:32:24;99574.91;;;20.48;100.00
19672;BME280;9983;51.114;13.788;2022-08-23T08:37:24;99567.44;;;20.55;100.00
19672;BME280;9983;51.114;13.788;2022-08-23T08:42:47;99558.22;;;20.56;100.00
19672;BME280;9983;51.114;13.788;2022-08-23T08:48:07;99559.38;;;20.60;100.00
19672;BME280;9983;51.114;13.788;2022-08-23T08:53:13;99541.63;;;20.45;100.00
19672;BME280;9983;51.114;13.788;2022-08-23T08:58:22;99569.56;;;20.53;100.00
19672;BME280;9983;51.114;13.788;2022-08-23T09:03:28;99561.03;;;20.84;100.00
19672;BME280;9983;51.114;13.788;2022-08-23T09:09:10;99550.47;;;20.99;100.00
19672;BME280;9983;51.114;13.788;2022-08-23T09:19:22;99569.97;;;21.19;100.00
19672;BME280;9983;51.114;13.788;2022-08-23T09:24:23;99559.34;;;21.06;100.00
19672;BME280;9983;51.114;13.788;2022-08-23T09:29:27;99560.75;;;21.20;100.00
19672;BME280;9983;51.114;13.788;2022-08-23T09:39:30;99569.91;;;21.43;100.00
19672;BME280;9983;51.114;13.788;2022-08-23T09:44:38;99566.69;;;21.74;100.00
19672;BME280;9983;51.114;13.788;2022-08-23T09:49:39;99572.84;;;21.25;100.00
19672;BME280;9983;51.114;13.788;2022-08-23T09:54:41;99569.03;;;21.26;100.00
19672;BME280;9983;51.114;13.788;2022-08-23T09:59:44;99575.28;;;21.66;100.00
19672;BME280;9983;51.114;13.788;2022-08-23T10:04:58;99585.13;;;21.39;100.00
19672;BME280;9983;51.114;13.788;2022-08-23T10:10:27;99579.03;;;21.48;100.00
19672;BME280;9983;51.114;13.788;2022-08-23T10:15:50;99581.00;;;21.53;100.00
19672;BME280;9983;51.114;13.788;2022-08-23T10:21:02;99577.00;;;21.44;100.00
19672;BME280;9983;51.114;13.788;2022-08-23T10:26:06;99592.81;;;21.70;100.00
19672;BME280;9983;51.114;13.788;2022-08-23T10:31:34;99576.53;;;21.47;100.00
19672;BME280;9983;51.114;13.788;2022-08-23T10:37:12;99591.09;;;21.52;100.00
19672;BME280;9983;51.114;13.788;2022-08-23T10:42:40;99590.59;;;21.15;100.00
19672;BME280;9983;51.114;13.788;2022-08-23T10:53:16;99586.97;;;21.50;100.00
19672;BME280;9983;51.114;13.788;2022-08-23T10:58:21;99588.13;;;21.54;100.00
19672;BME280;9983;51.114;13.788;2022-08-23T11:03:32;99593.22;;;21.10;100.00
19672;BME280;9983;51.114;13.788;2022-08-23T11:08:35;99585.13;;;21.39;100.00
19672;BME280;9983;51.114;13.788;2022-08-23T11:13:50;99594.25;;;21.61;100.00
19672;BME280;9983;51.114;13.788;2022-08-23T11:18:52;99589.00;;;21.71;100.00
19672;BME280;9983;51.114;13.788;2022-08-23T11:34:17;99602.53;;;22.23;100.00
19672;BME280;9983;51.114;13.788;2022-08-23T11:39:22;99585.56;;;22.21;100.00
19672;BME280;9983;51.114;13.788;2022-08-23T11:44:26;99593.75;;;22.38;100.00
19672;BME280;9983;51.114;13.788;2022-08-23T11:49:58;99599.88;;;22.28;100.00
19672;BME280;9983;51.114;13.788;2022-08-23T12:11:08;99608.00;;;22.23;100.00
19672;BME280;9983;51.114;13.788;2022-08-23T12:21:23;99609.00;;;22.50;100.00
19672;BME280;9983;51.114;13.788;2022-08-23T12:26:43;99610.28;;;22.64;100.00
19672;BME280;9983;51.114;13.788;2022-08-23T12:31:56;99617.25;;;22.55;100.00
19672;BME280;9983;51.114;13.788;2022-08-23T12:37:19;99611.31;;;22.58;100.00
19672;BME280;9983;51.114;13.788;2022-08-23T12:42:28;99607.66;;;22.36;100.00
19672;BME280;9983;51.114;13.788;2022-08-23T12:47:30;99607.06;;;22.67;100.00
19672;BME280;9983;51.114;13.788;2022-08-23T12:52:33;99599.13;;;22.66;100.00
19672;BME280;9983;51.114;13.788;2022-08-23T12:57:37;99598.19;;;22.77;100.00
19672;BME280;9983;51.114;13.788;2022-08-23T13:02:40;99606.06;;;22.74;100.00
19672;BME280;9983;51.114;13.788;2022-08-23T13:07:43;99596.53;;;22.93;100.00
19672;BME280;9983;51.114;13.788;2022-08-23T13:12:43;99601.34;;;22.86;100.00
19672;BME280;9983;51.114;13.788;2022-08-23T13:17:44;99603.34;;;22.74;100.00
19672;BME280;9983;51.114;13.788;2022-08-23T13:23:05;99599.97;;;23.05;100.00
19672;BME280;9983;51.114;13.788;2022-08-23T13:28:26;99598.84;;;23.01;100.00
19672;BME280;9983;51.114;13.788;2022-08-23T13:33:26;99602.25;;;23.13;100.00
19672;BME280;9983;51.114;13.788;2022-08-23T13:38:31;99606.25;;;23.27;100.00
19672;BME280;9983;51.114;13.788;2022-08-23T13:43:44;99601.63;;;23.06;100.00
19672;BME280;9983;51.114;13.788;2022-08-23T13:54:09;99604.34;;;22.84;100.00
19672;BME280;9983;51.114;13.788;2022-08-23T13:59:35;99598.00;;;23.00;100.00
19672;BME280;9983;51.114;13.788;2022-08-23T14:04:36;99601.25;;;23.19;100.00
19672;BME280;9983;51.114;13.788;2022-08-23T14:09:38;99599.19;;;22.88;100.00
19672;BME280;9983;51.114;13.788;2022-08-23T14:14:38;99596.31;;;23.16;100.00
19672;BME280;9983;51.114;13.788;2022-08-23T14:19:39;99590.69;;;23.06;100.00
19672;BME280;9983;51.114;13.788;2022-08-23T14:24:41;99597.69;;;23.19;100.00
19672;BME280;9983;51.114;13.788;2022-08-23T14:29:41;99600.13;;;23.59;100.00
19672;BME280;9983;51.114;13.788;2022-08-23T14:34:41;99585.44;;;23.70;100.00
19672;BME280;9983;51.114;13.788;2022-08-23T14:39:42;99590.56;;;23.39;100.00
19672;BME280;9983;51.114;13.788;2022-08-23T14:44:42;99594.09;;;23.57;100.00
19672;BME280;9983;51.114;13.788;2022-08-23T14:49:42;99593.63;;;23.65;97.97
19672;BME280;9983;51.114;13.788;2022-08-23T14:54:42;99588.41;;;23.63;97.28
19672;BME280;9983;51.114;13.788;2022-08-23T14:59:43;99588.44;;;23.95;96.69
19672;BME280;9983;51.114;13.788;2022-08-23T15:04:43;99589.13;;;24.07;94.53
19672;BME280;9983;51.114;13.788;2022-08-23T15:09:45;99591.03;;;24.07;95.07
19672;BME280;9983;51.114;13.788;2022-08-23T15:14:45;99589.59;;;23.99;92.77
19672;BME280;9983;51.114;13.788;2022-08-23T15:19:46;99586.41;;;23.80;94.60
19672;BME280;9983;51.114;13.788;2022-08-23T15:24:46;99590.72;;;24.03;93.21
19672;BME280;9983;51.114;13.788;2022-08-23T15:29:46;99593.09;;;24.22;93.29
19672;BME280;9983;51.114;13.788;2022-08-23T15:34:46;99590.09;;;23.96;92.50
19672;BME280;9983;51.114;13.788;2022-08-23T15:39:47;99588.06;;;24.13;93.03
19672;BME280;9983;51.114;13.788;2022-08-23T15:44:48;99593.19;;;23.78;93.38
19672;BME280;9983;51.114;13.788;2022-08-23T15:49:48;99581.72;;;23.76;94.24
19672;BME280;9983;51.114;13.788;2022-08-23T15:54:49;99586.84;;;23.99;92.49
19672;BME280;9983;51.114;13.788;2022-08-23T15:59:49;99580.91;;;24.07;92.75
19672;BME280;9983;51.114;13.788;2022-08-23T16:04:50;99570.66;;;24.99;89.02
19672;BME280;9983;51.114;13.788;2022-08-23T16:09:50;99564.47;;;24.81;87.02
19672;BME280;9983;51.114;13.788;2022-08-23T16:14:51;99567.22;;;24.76;86.92
19672;BME280;9983;51.114;13.788;2022-08-23T16:19:51;99568.13;;;24.50;87.97
19672;BME280;9983;51.114;13.788;2022-08-23T16:24:53;99568.91;;;24.87;86.21
19672;BME280;9983;51.114;13.788;2022-08-23T16:29:54;99564.31;;;25.70;82.54
19672;BME280;9983;51.114;13.788;2022-08-23T16:34:54;99559.84;;;25.39;82.30
19672;BME280;9983;51.114;13.788;2022-08-23T16:39:55;99563.72;;;25.53;82.71
19672;BME280;9983;51.114;13.788;2022-08-23T16:44:55;99561.75;;;25.33;81.39
19672;BME280;9983;51.114;13.788;2022-08-23T16:49:55;99570.44;;;25.15;83.19
19672;BME280;9983;51.114;13.788;2022-08-23T16:54:55;99575.94;;;24.73;85.66
19672;BME280;9983;51.114;13.788;2022-08-23T16:59:55;99569.81;;;24.61;88.10
19672;BME280;9983;51.114;13.788;2022-08-23T17:04:57;99577.09;;;24.40;90.40
19672;BME280;9983;51.114;13.788;2022-08-23T17:09:57;99586.47;;;24.17;91.65
19672;BME280;9983;51.114;13.788;2022-08-23T17:14:58;99583.06;;;24.05;93.53
19672;BME280;9983;51.114;13.788;2022-08-23T17:19:58;99586.78;;;23.94;96.69
19672;BME280;9983;51.114;13.788;2022-08-23T17:24:58;99582.69;;;23.92;98.34
19672;BME280;9983;51.114;13.788;2022-08-23T17:29:59;99596.66;;;23.46;100.00
19672;BME280;9983;51.114;13.788;2022-08-23T17:34:59;99592.28;;;23.45;100.00
19672;BME280;9983;51.114;13.788;2022-08-23T17:40:00;99587.66;;;23.24;100.00
19672;BME280;9983;51.114;13.788;2022-08-23T17:45:00;99596.69;;;22.86;100.00
19672;BME280;9983;51.114;13.788;2022-08-23T17:50:01;99603.53;;;22.50;100.00
19672;BME280;9983;51.114;13.788;2022-08-23T17:55:03;99609.47;;;22.64;100.00
19672;BME280;9983;51.114;13.788;2022-08-23T18:00:05;99614.94;;;22.47;100.00
19672;BME280;9983;51.114;13.788;2022-08-23T18:05:06;99619.09;;;22.33;100.00
19672;BME280;9983;51.114;13.788;2022-08-23T18:10:08;99634.41;;;22.34;100.00
19672;BME280;9983;51.114;13.788;2022-08-23T18:15:10;99645.00;;;22.47;100.00
19672;BME280;9983;51.114;13.788;2022-08-23T18:20:12;99648.47;;;22.26;100.00
19672;BME280;9983;51.114;13.788;2022-08-23T18:25:13;99644.63;;;21.82;100.00
19672;BME280;9983;51.114;13.788;2022-08-23T18:30:15;99661.25;;;21.69;100.00
19672;BME280;9983;51.114;13.788;2022-08-23T18:35:16;99661.69;;;21.49;100.00
19672;BME280;9983;51.114;13.788;2022-08-23T18:40:17;99663.28;;;21.73;100.00
19672;BME280;9983;51.114;13.788;2022-08-23T18:45:18;99665.13;;;21.56;100.00
19672;BME280;9983;51.114;13.788;2022-08-23T18:50:18;99667.25;;;21.54;100.00
19672;BME280;9983;51.114;13.788;2022-08-23T18:55:19;99683.88;;;21.41;100.00
19672;BME280;9983;51.114;13.788;2022-08-23T19:00:19;99676.22;;;21.94;100.00
19672;BME280;9983;51.114;13.788;2022-08-23T19:05:20;99687.38;;;21.65;100.00
19672;BME280;9983;51.114;13.788;2022-08-23T19:10:20;99692.91;;;21.81;100.00
19672;BME280;9983;51.114;13.788;2022-08-23T19:15:21;99688.06;;;21.72;100.00
19672;BME280;9983;51.114;13.788;2022-08-23T19:20:21;99699.75;;;21.44;100.00
19672;BME280;9983;51.114;13.788;2022-08-23T19:25:22;99695.97;;;21.45;100.00
19672;BME280;9983;51.114;13.788;2022-08-23T19:30:22;99701.97;;;21.70;100.00
19672;BME280;9983;51.114;13.788;2022-08-23T19:35:23;99709.53;;;21.68;100.00
19672;BME280;9983;51.114;13.788;2022-08-23T19:40:23;99714.59;;;21.48;100.00
19672;BME280;9983;51.114;13.788;2022-08-23T19:45:24;99710.53;;;21.62;100.00
19672;BME280;9983;51.114;13.788;2022-08-23T19:50:26;99714.72;;;21.30;100.00
19672;BME280;9983;51.114;13.788;2022-08-23T19:55:26;99718.88;;;21.20;100.00
19672;BME280;9983;51.114;13.788;2022-08-23T20:00:26;99712.69;;;21.37;100.00
19672;BME280;9983;51.114;13.788;2022-08-23T20:05:28;99718.00;;;21.67;100.00
19672;BME280;9983;51.114;13.788;2022-08-23T20:10:28;99716.94;;;21.56;100.00
19672;BME280;9983;51.114;13.788;2022-08-23T20:15:28;99722.72;;;21.59;100.00
19672;BME280;9983;51.114;13.788;2022-08-23T20:20:29;99733.34;;;21.33;100.00
19672;BME280;9983;51.114;13.788;2022-08-23T20:25:29;99723.31;;;21.73;100.00
19672;BME280;9983;51.114;13.788;2022-08-23T20:30:30;99726.69;;;21.29;100.00
19672;BME280;9983;51.114;13.788;2022-08-23T20:35:30;99727.66;;;21.23;100.00
19672;BME280;9983;51.114;13.788;2022-08-23T20:40:31;99726.22;;;21.32;100.00
19672;BME280;9983;51.114;13.788;2022-08-23T20:45:31;99723.38;;;21.27;100.00
19672;BME280;9983;51.114;13.788;2022-08-23T20:50:32;99718.41;;;21.24;100.00
19672;BME280;9983;51.114;13.788;2022-08-23T20:55:32;99734.66;;;21.42;100.00
19672;BME280;9983;51.114;13.788;2022-08-23T21:00:32;99725.72;;;21.58;100.00
19672;BME280;9983;51.114;13.788;2022-08-23T21:05:33;99731.00;;;21.25;100.00
19672;BME280;9983;51.114;13.788;2022-08-23T21:10:33;99737.22;;;20.90;100.00
19672;BME280;9983;51.114;13.788;2022-08-23T21:15:34;99731.91;;;21.42;100.00
19672;BME280;9983;51.114;13.788;2022-08-23T21:20:34;99737.47;;;21.47;100.00
19672;BME280;9983;51.114;13.788;2022-08-23T21:25:34;99739.28;;;21.30;100.00
19672;BME280;9983;51.114;13.788;2022-08-23T21:30:35;99729.31;;;21.00;100.00
19672;BME280;9983;51.114;13.788;2022-08-23T21:35:37;99722.88;;;21.06;100.00
19672;BME280;9983;51.114;13.788;2022-08-23T21:40:37;99722.88;;;20.83;100.00
19672;BME280;9983;51.114;13.788;2022-08-23T21:45:37;99730.47;;;21.04;100.00
19672;BME280;9983;51.114;13.788;2022-08-23T21:50:37;99725.00;;;21.04;100.00
19672;BME280;9983;51.114;13.788;2022-08-23T21:55:38;99723.50;;;21.32;100.00
19672;BME280;9983;51.114;13.788;2022-08-23T22:00:40;99722.19;;;21.46;100.00
19672;BME280;9983;51.114;13.788;2022-08-23T22:05:42;99709.38;;;21.46;100.00
19672;BME280;9983;51.114;13.788;2022-08-23T22:10:42;99713.28;;;21.04;100.00
19672;BME280;9983;51.114;13.788;2022-08-23T22:15:44;99709.97;;;21.37;100.00
19672;BME280;9983;51.114;13.788;2022-08-23T22:20:44;99710.78;;;20.79;100.00
19672;BME280;9983;51.114;13.788;2022-08-23T22:25:44;99704.66;;;21.18;100.00
19672;BME280;9983;51.114;13.788;2022-08-23T22:30:44;99705.94;;;21.28;100.00
19672;BME280;9983;51.114;13.788;2022-08-23T22:35:45;99706.75;;;20.70;100.00
19672;BME280;9983;51.114;13.788;2022-08-23T22:40:47;99712.44;;;20.80;100.00
19672;BME280;9983;51.114;13.788;2022-08-23T22:45:53;99704.50;;;21.02;100.00
19672;BME280;9983;51.114;13.788;2022-08-23T22:51:12;99703.41;;;20.68;100.00
19672;BME280;9983;51.114;13.788;2022-08-23T22:56:48;99700.06;;;20.42;100.00
19672;BME280;9983;51.114;13.788;2022-08-23T23:01:54;99703.91;;;20.65;100.00
19672;BME280;9983;51.114;13.788;2022-08-23T23:06:56;99691.47;;;20.80;100.00
19672;BME280;9983;51.114;13.788;2022-08-23T23:11:57;99696.59;;;21.00;100.00
19672;BME280;9983;51.114;13.788;2022-08-23T23:16:57;99697.03;;;20.74;100.00
19672;BME280;9983;51.114;13.788;2022-08-23T23:21:58;99708.41;;;20.94;100.00
19672;BME280;9983;51.114;13.788;2022-08-23T23:26:59;99708.16;;;20.84;100.00
19672;BME280;9983;51.114;13.788;2022-08-23T23:32:00;99706.25;;;20.61;100.00
19672;BME280;9983;51.114;13.788;2022-08-23T23:37:00;99709.00;;;20.31;100.00
19672;BME280;9983;51.114;13.788;2022-08-23T23:42:01;99699.31;;;20.35;100.00
19672;BME280;9983;51.114;13.788;2022-08-23T23:47:01;99687.31;;;20.78;100.00
19672;BME280;9983;51.114;13.788;2022-08-23T23:52:04;99693.19;;;20.52;100.00
19672;BME280;9983;51.114;13.788;2022-08-23T23:57:05;99697.75;;;20.81;100.00
